M/y A.b.normal — 2DLI6 — position and weather

sailwx.info

Track history (hours):
 
Tides and Currents Weather Stations Pressure Air Temp Water Temp Dewpoint Dewpoint Depression Visibility Wind Speed Wind Dir Waves Ship Positions

M/y A.b.normal

Last reported at 2016-Jul-25 07:33 UTC. Time now 2016-Jul-25 08:08 UTC.
Position N 39°33' E 002°38'.

Length 28 m; draft 2.8 m.

Type: Pleasure craft. MMSI: 235079977.

Date/timePositionNaut miles runAvg speedWind from/ knotsBaromVisibWave heightAir tempDewpointWater temp
2016-Jul-25 07:33N 39°33' E 002°38'0 0.0
2016-Jul-25 06:33N 39°33' E 002°38'0 0.0
2016-Jul-25 05:30N 39°33' E 002°38'0 0.0
2016-Jul-25 04:33N 39°33' E 002°38'0 0.0
2016-Jul-25 03:33N 39°33' E 002°38'0 0.0
2016-Jul-25 02:33N 39°33' E 002°38'0 0.0
2016-Jul-25 01:33N 39°33' E 002°38'0 0.0
2016-Jul-25 00:33N 39°33' E 002°38'0 0.0
2016-Jul-24 23:33N 39°33' E 002°38'0 0.0
2016-Jul-24 22:33N 39°33' E 002°38'0 0.0
2016-Jul-24 21:33N 39°33' E 002°38'0 0.0
2016-Jul-24 20:33N 39°33' E 002°38'0 0.0
2016-Jul-24 19:33N 39°33' E 002°38'0 0.0
2016-Jul-24 18:30N 39°33' E 002°38'0 0.0
2016-Jul-24 17:33N 39°33' E 002°38'0 0.0
2016-Jul-24 16:30N 39°33' E 002°38'0 0.0
2016-Jul-24 15:33N 39°33' E 002°38'0 0.0
2016-Jul-24 14:33N 39°33' E 002°38'0 0.0
2016-Jul-24 13:33N 39°33' E 002°38'0 0.0
2016-Jul-24 12:33N 39°33' E 002°38'0 0.0
2016-Jul-24 11:33N 39°33' E 002°38'0 0.0
2016-Jul-24 10:33N 39°33' E 002°38'0 0.0
2016-Jul-24 09:33N 39°33' E 002°38'0 0.0
2016-Jul-24 08:33N 39°33' E 002°38'0 0.0
2016-Jul-24 07:33N 39°33' E 002°38'0 0.0
2016-Jul-24 06:33N 39°33' E 002°38'0 0.0
2016-Jul-24 05:33N 39°33' E 002°38'0 0.0
2016-Jul-24 04:33N 39°33' E 002°38'0 0.0
2016-Jul-24 03:33N 39°33' E 002°38'0 0.0
2016-Jul-24 02:33N 39°33' E 002°38'0 0.0
2016-Jul-24 01:33N 39°33' E 002°38'0 0.0
2016-Jul-24 00:33N 39°33' E 002°38'0 0.0
2016-Jul-23 23:33N 39°33' E 002°38'0 0.0
2016-Jul-23 22:33N 39°33' E 002°38'0 0.0
2016-Jul-23 21:33N 39°33' E 002°38'0 0.0
2016-Jul-23 20:33N 39°33' E 002°38'0 0.0
2016-Jul-23 19:33N 39°33' E 002°38'0 0.0
2016-Jul-23 18:33N 39°33' E 002°38'0 0.0
2016-Jul-23 17:33N 39°33' E 002°38'0 0.0
2016-Jul-23 16:33N 39°33' E 002°38'0 0.0
2016-Jul-23 15:33N 39°33' E 002°38'0 0.0
2016-Jul-23 14:33N 39°33' E 002°38'3 2.8
2016-Jul-23 13:33N 39°31' E 002°37'1010.3
2016-Jul-23 12:33N 39°24' E 002°27'1010.2
2016-Jul-23 11:33N 39°18' E 002°16'1010.2
2016-Jul-23 10:33N 39°12' E 002°05'1010.3
2016-Jul-23 09:33N 39°06' E 001°55'1010.4
2016-Jul-23 08:33N 38°60' E 001°44'22 0.8
2016-Jul-22 04:12N 38°52' E 001°18'0 0.0
2016-Jul-22 02:05N 38°52' E 001°18'  
2016-Jul-17 14:29N 38°50' E 001°20'1 0.0
2016-Jul-16 08:26N 38°51' E 001°19'6 6.7
2016-Jul-16 07:33N 38°52' E 001°26'3 2.8
2016-Jul-16 06:32N 38°55' E 001°27'0 0.0
2016-Jul-16 04:29N 38°55' E 001°27'0 0.0
2016-Jul-16 03:32N 38°55' E 001°27'0 0.0
2016-Jul-16 02:32N 38°55' E 001°27'0 0.0
2016-Jul-16 01:26N 38°55' E 001°27'0 0.0
2016-Jul-16 00:32N 38°55' E 001°27'0 0.0
2016-Jul-15 23:32N 38°55' E 001°27'0 0.0
2016-Jul-15 22:32N 38°55' E 001°27'0 0.0
2016-Jul-15 21:32N 38°55' E 001°27'0 0.0
2016-Jul-15 20:32N 38°55' E 001°27'0 0.0
2016-Jul-15 18:28N 38°55' E 001°27'  
Track history (hours):
 
Tides and Currents Weather Stations Pressure Air Temp Water Temp Dewpoint Dewpoint Depression Visibility Wind Speed Wind Dir Waves Ship Positions

M/y A.b.normal

Last reported at 2016-Jul-25 07:33 UTC. Time now 2016-Jul-25 08:08 UTC.
Position N 39°33' E 002°38'.

Length 28 m; draft 2.8 m.

Type: Pleasure craft. MMSI: 235079977.

Date/timePositionNaut miles runAvg speedWind from/ knotsBaromVisibWave heightAir tempDewpointWater temp
2016-Jul-25 07:33N 39°33' E 002°38'0 0.0
2016-Jul-25 06:33N 39°33' E 002°38'0 0.0
2016-Jul-25 05:30N 39°33' E 002°38'0 0.0
2016-Jul-25 04:33N 39°33' E 002°38'0 0.0
2016-Jul-25 03:33N 39°33' E 002°38'0 0.0
2016-Jul-25 02:33N 39°33' E 002°38'0 0.0
2016-Jul-25 01:33N 39°33' E 002°38'0 0.0
2016-Jul-25 00:33N 39°33' E 002°38'0 0.0
2016-Jul-24 23:33N 39°33' E 002°38'0 0.0
2016-Jul-24 22:33N 39°33' E 002°38'0 0.0
2016-Jul-24 21:33N 39°33' E 002°38'0 0.0
2016-Jul-24 20:33N 39°33' E 002°38'0 0.0
2016-Jul-24 19:33N 39°33' E 002°38'0 0.0
2016-Jul-24 18:30N 39°33' E 002°38'0 0.0
2016-Jul-24 17:33N 39°33' E 002°38'0 0.0
2016-Jul-24 16:30N 39°33' E 002°38'0 0.0
2016-Jul-24 15:33N 39°33' E 002°38'0 0.0
2016-Jul-24 14:33N 39°33' E 002°38'0 0.0
2016-Jul-24 13:33N 39°33' E 002°38'0 0.0
2016-Jul-24 12:33N 39°33' E 002°38'0 0.0
2016-Jul-24 11:33N 39°33' E 002°38'0 0.0
2016-Jul-24 10:33N 39°33' E 002°38'0 0.0
2016-Jul-24 09:33N 39°33' E 002°38'0 0.0
2016-Jul-24 08:33N 39°33' E 002°38'0 0.0
2016-Jul-24 07:33N 39°33' E 002°38'0 0.0
2016-Jul-24 06:33N 39°33' E 002°38'0 0.0
2016-Jul-24 05:33N 39°33' E 002°38'0 0.0
2016-Jul-24 04:33N 39°33' E 002°38'0 0.0
2016-Jul-24 03:33N 39°33' E 002°38'0 0.0
2016-Jul-24 02:33N 39°33' E 002°38'0 0.0
2016-Jul-24 01:33N 39°33' E 002°38'0 0.0
2016-Jul-24 00:33N 39°33' E 002°38'0 0.0
2016-Jul-23 23:33N 39°33' E 002°38'0 0.0
2016-Jul-23 22:33N 39°33' E 002°38'0 0.0
2016-Jul-23 21:33N 39°33' E 002°38'0 0.0
2016-Jul-23 20:33N 39°33' E 002°38'0 0.0
2016-Jul-23 19:33N 39°33' E 002°38'0 0.0
2016-Jul-23 18:33N 39°33' E 002°38'0 0.0
2016-Jul-23 17:33N 39°33' E 002°38'0 0.0
2016-Jul-23 16:33N 39°33' E 002°38'0 0.0
2016-Jul-23 15:33N 39°33' E 002°38'0 0.0
2016-Jul-23 14:33N 39°33' E 002°38'3 2.8
2016-Jul-23 13:33N 39°31' E 002°37'1010.3
2016-Jul-23 12:33N 39°24' E 002°27'1010.2
2016-Jul-23 11:33N 39°18' E 002°16'1010.2
2016-Jul-23 10:33N 39°12' E 002°05'1010.3
2016-Jul-23 09:33N 39°06' E 001°55'1010.4
2016-Jul-23 08:33N 38°60' E 001°44'22 0.8
2016-Jul-22 04:12N 38°52' E 001°18'0 0.0
2016-Jul-22 02:05N 38°52' E 001°18'  
2016-Jul-17 14:29N 38°50' E 001°20'1 0.0
2016-Jul-16 08:26N 38°51' E 001°19'6 6.7
2016-Jul-16 07:33N 38°52' E 001°26'3 2.8
2016-Jul-16 06:32N 38°55' E 001°27'0 0.0
2016-Jul-16 04:29N 38°55' E 001°27'0 0.0
2016-Jul-16 03:32N 38°55' E 001°27'0 0.0
2016-Jul-16 02:32N 38°55' E 001°27'0 0.0
2016-Jul-16 01:26N 38°55' E 001°27'0 0.0
2016-Jul-16 00:32N 38°55' E 001°27'0 0.0
2016-Jul-15 23:32N 38°55' E 001°27'0 0.0
2016-Jul-15 22:32N 38°55' E 001°27'0 0.0
2016-Jul-15 21:32N 38°55' E 001°27'0 0.0
2016-Jul-15 20:32N 38°55' E 001°27'0 0.0
2016-Jul-15 18:28N 38°55' E 001°27'  

Dump ship's entire track history